sensor_id;sensor_type;location;lat;lon;timestamp;temperature;humidity
23957;DHT22;12165;45.458;11.062;2022-08-11T00:01:14;26.30;90.60
23957;DHT22;12165;45.458;11.062;2022-08-11T00:03:53;26.30;90.50
23957;DHT22;12165;45.458;11.062;2022-08-11T00:06:47;26.40;90.60
23957;DHT22;12165;45.458;11.062;2022-08-11T00:09:17;26.30;90.60
23957;DHT22;12165;45.458;11.062;2022-08-11T00:11:51;26.30;90.30
23957;DHT22;12165;45.458;11.062;2022-08-11T00:14:25;26.30;90.60
23957;DHT22;12165;45.458;11.062;2022-08-11T00:17:12;26.20;90.90
23957;DHT22;12165;45.458;11.062;2022-08-11T00:19:43;26.10;91.00
23957;DHT22;12165;45.458;11.062;2022-08-11T00:22:31;26.00;91.30
23957;DHT22;12165;45.458;11.062;2022-08-11T00:25:06;25.90;91.70
23957;DHT22;12165;45.458;11.062;2022-08-11T00:27:36;25.80;91.90
23957;DHT22;12165;45.458;11.062;2022-08-11T00:30:06;25.80;92.30
23957;DHT22;12165;45.458;11.062;2022-08-11T00:32:38;25.70;92.60
23957;DHT22;12165;45.458;11.062;2022-08-11T00:35:09;25.70;92.30
23957;DHT22;12165;45.458;11.062;2022-08-11T00:37:57;25.70;92.60
23957;DHT22;12165;45.458;11.062;2022-08-11T00:40:36;25.60;92.70
23957;DHT22;12165;45.458;11.062;2022-08-11T00:43:50;25.60;92.90
23957;DHT22;12165;45.458;11.062;2022-08-11T00:46:15;25.50;93.00
23957;DHT22;12165;45.458;11.062;2022-08-11T00:49:23;25.50;92.90
23957;DHT22;12165;45.458;11.062;2022-08-11T00:52:28;25.50;93.00
23957;DHT22;12165;45.458;11.062;2022-08-11T01:12:39;25.40;93.90
23957;DHT22;12165;45.458;11.062;2022-08-11T01:15:52;25.40;93.70
23957;DHT22;12165;45.458;11.062;2022-08-11T01:24:39;25.70;91.60
23957;DHT22;12165;45.458;11.062;2022-08-11T01:28:19;25.80;91.40
23957;DHT22;12165;45.458;11.062;2022-08-11T01:36:19;26.10;89.20
23957;DHT22;12165;45.458;11.062;2022-08-11T01:48:15;26.20;88.00
23957;DHT22;12165;45.458;11.062;2022-08-11T01:53:50;26.20;87.90
23957;DHT22;12165;45.458;11.062;2022-08-11T01:56:52;26.10;87.80
23957;DHT22;12165;45.458;11.062;2022-08-11T01:59:33;26.00;87.90
23957;DHT22;12165;45.458;11.062;2022-08-11T02:05:04;25.90;87.80
23957;DHT22;12165;45.458;11.062;2022-08-11T02:13:46;25.90;87.20
23957;DHT22;12165;45.458;11.062;2022-08-11T02:16:46;25.90;85.70
23957;DHT22;12165;45.458;11.062;2022-08-11T02:28:17;25.80;84.30
23957;DHT22;12165;45.458;11.062;2022-08-11T02:54:20;25.70;81.30
23957;DHT22;12165;45.458;11.062;2022-08-11T02:57:04;25.60;81.60
23957;DHT22;12165;45.458;11.062;2022-08-11T02:59:59;25.60;81.10
23957;DHT22;12165;45.458;11.062;2022-08-11T03:06:11;25.50;81.10
23957;DHT22;12165;45.458;11.062;2022-08-11T03:08:57;25.50;80.80
23957;DHT22;12165;45.458;11.062;2022-08-11T03:15:19;25.50;81.30
23957;DHT22;12165;45.458;11.062;2022-08-11T03:18:17;25.40;80.80
23957;DHT22;12165;45.458;11.062;2022-08-11T03:31:40;25.50;80.00
23957;DHT22;12165;45.458;11.062;2022-08-11T03:34:18;25.50;79.60
23957;DHT22;12165;45.458;11.062;2022-08-11T03:40:15;25.50;79.50
23957;DHT22;12165;45.458;11.062;2022-08-11T03:43:27;25.30;79.70
23957;DHT22;12165;45.458;11.062;2022-08-11T03:46:09;25.30;78.90
23957;DHT22;12165;45.458;11.062;2022-08-11T03:49:07;25.40;78.20
23957;DHT22;12165;45.458;11.062;2022-08-11T03:52:22;25.30;78.60
23957;DHT22;12165;45.458;11.062;2022-08-11T04:00:32;25.40;77.20
23957;DHT22;12165;45.458;11.062;2022-08-11T04:06:28;25.40;77.00
23957;DHT22;12165;45.458;11.062;2022-08-11T04:23:01;25.30;77.30
23957;DHT22;12165;45.458;11.062;2022-08-11T04:34:34;25.20;77.20
23957;DHT22;12165;45.458;11.062;2022-08-11T04:48:38;24.20;86.20
23957;DHT22;12165;45.458;11.062;2022-08-11T05:10:36;24.50;86.50
23957;DHT22;12165;45.458;11.062;2022-08-11T05:13:10;24.50;86.70
23957;DHT22;12165;45.458;11.062;2022-08-11T05:16:09;24.50;87.40
23957;DHT22;12165;45.458;11.062;2022-08-11T05:18:55;24.50;87.10
23957;DHT22;12165;45.458;11.062;2022-08-11T05:21:53;24.50;87.70
23957;DHT22;12165;45.458;11.062;2022-08-11T05:24:46;24.80;82.00
23957;DHT22;12165;45.458;11.062;2022-08-11T05:30:41;24.80;86.50
23957;DHT22;12165;45.458;11.062;2022-08-11T05:33:44;24.80;85.00
23957;DHT22;12165;45.458;11.062;2022-08-11T05:36:44;25.20;84.50
23957;DHT22;12165;45.458;11.062;2022-08-11T05:39:32;25.40;83.70
23957;DHT22;12165;45.458;11.062;2022-08-11T05:42:21;25.50;82.20
23957;DHT22;12165;45.458;11.062;2022-08-11T05:45:13;25.60;81.60
23957;DHT22;12165;45.458;11.062;2022-08-11T05:48:19;25.60;80.90
23957;DHT22;12165;45.458;11.062;2022-08-11T05:51:06;25.80;78.30
23957;DHT22;12165;45.458;11.062;2022-08-11T05:53:58;26.20;75.90
23957;DHT22;12165;45.458;11.062;2022-08-11T05:56:57;28.90;70.10
23957;DHT22;12165;45.458;11.062;2022-08-11T05:59:26;30.80;64.50
23957;DHT22;12165;45.458;11.062;2022-08-11T06:02:01;28.60;69.00
23957;DHT22;12165;45.458;11.062;2022-08-11T06:04:30;27.40;70.80
23957;DHT22;12165;45.458;11.062;2022-08-11T06:07:03;27.00;71.00
23957;DHT22;12165;45.458;11.062;2022-08-11T06:12:22;27.60;70.50
23957;DHT22;12165;45.458;11.062;2022-08-11T06:14:53;27.90;69.60
23957;DHT22;12165;45.458;11.062;2022-08-11T06:17:28;27.60;70.20
23957;DHT22;12165;45.458;11.062;2022-08-11T06:20:11;27.80;69.40
23957;DHT22;12165;45.458;11.062;2022-08-11T06:22:44;28.00;68.90
23957;DHT22;12165;45.458;11.062;2022-08-11T06:25:18;28.60;68.20
23957;DHT22;12165;45.458;11.062;2022-08-11T06:27:46;28.00;70.70
23957;DHT22;12165;45.458;11.062;2022-08-11T06:30:39;27.70;70.20
23957;DHT22;12165;45.458;11.062;2022-08-11T06:39:01;27.60;71.00
23957;DHT22;12165;45.458;11.062;2022-08-11T06:41:51;28.70;71.20
23957;DHT22;12165;45.458;11.062;2022-08-11T06:44:29;33.30;61.20
23957;DHT22;12165;45.458;11.062;2022-08-11T06:47:08;35.30;58.40
23957;DHT22;12165;45.458;11.062;2022-08-11T06:49:46;35.50;56.20
23957;DHT22;12165;45.458;11.062;2022-08-11T06:52:36;35.90;55.90
23957;DHT22;12165;45.458;11.062;2022-08-11T06:57:54;37.20;54.70
23957;DHT22;12165;45.458;11.062;2022-08-11T07:00:40;36.00;55.50
23957;DHT22;12165;45.458;11.062;2022-08-11T07:03:14;36.10;55.10
23957;DHT22;12165;45.458;11.062;2022-08-11T07:06:00;35.90;55.30
23957;DHT22;12165;45.458;11.062;2022-08-11T07:14:48;38.50;52.10
23957;DHT22;12165;45.458;11.062;2022-08-11T07:17:41;39.10;50.70
23957;DHT22;12165;45.458;11.062;2022-08-11T07:20:10;38.30;51.90
23957;DHT22;12165;45.458;11.062;2022-08-11T07:23:00;37.60;50.80
23957;DHT22;12165;45.458;11.062;2022-08-11T07:25:50;37.80;51.60
23957;DHT22;12165;45.458;11.062;2022-08-11T07:28:58;37.50;51.80
23957;DHT22;12165;45.458;11.062;2022-08-11T07:31:42;37.90;51.60
23957;DHT22;12165;45.458;11.062;2022-08-11T07:36:55;36.40;52.30
23957;DHT22;12165;45.458;11.062;2022-08-11T07:39:27;37.00;52.00
23957;DHT22;12165;45.458;11.062;2022-08-11T07:41:57;36.90;51.50
23957;DHT22;12165;45.458;11.062;2022-08-11T07:44:27;35.80;53.00
23957;DHT22;12165;45.458;11.062;2022-08-11T07:47:01;35.60;54.20
23957;DHT22;12165;45.458;11.062;2022-08-11T07:49:49;33.90;56.80
23957;DHT22;12165;45.458;11.062;2022-08-11T07:52:37;33.10;57.80
23957;DHT22;12165;45.458;11.062;2022-08-11T07:55:14;33.00;57.10
23957;DHT22;12165;45.458;11.062;2022-08-11T07:57:46;32.70;57.30
23957;DHT22;12165;45.458;11.062;2022-08-11T08:03:42;32.60;56.50
23957;DHT22;12165;45.458;11.062;2022-08-11T08:06:30;32.90;56.80
23957;DHT22;12165;45.458;11.062;2022-08-11T08:09:18;32.70;56.50
23957;DHT22;12165;45.458;11.062;2022-08-11T08:12:05;32.60;56.20
23957;DHT22;12165;45.458;11.062;2022-08-11T08:14:53;32.60;56.40
23957;DHT22;12165;45.458;11.062;2022-08-11T08:17:43;32.30;57.10
23957;DHT22;12165;45.458;11.062;2022-08-11T08:20:47;32.30;57.20
23957;DHT22;12165;45.458;11.062;2022-08-11T08:23:17;31.80;56.60
23957;DHT22;12165;45.458;11.062;2022-08-11T08:26:06;31.80;57.20
23957;DHT22;12165;45.458;11.062;2022-08-11T08:28:55;32.00;58.00
23957;DHT22;12165;45.458;11.062;2022-08-11T08:31:42;31.70;58.90
23957;DHT22;12165;45.458;11.062;2022-08-11T08:34:12;32.40;57.90
23957;DHT22;12165;45.458;11.062;2022-08-11T08:36:42;32.50;56.20
23957;DHT22;12165;45.458;11.062;2022-08-11T08:39:11;32.20;57.80
23957;DHT22;12165;45.458;11.062;2022-08-11T08:41:39;31.90;58.20
23957;DHT22;12165;45.458;11.062;2022-08-11T08:44:11;32.10;57.40
23957;DHT22;12165;45.458;11.062;2022-08-11T08:47:03;31.40;57.10
23957;DHT22;12165;45.458;11.062;2022-08-11T08:49:37;31.50;58.10
23957;DHT22;12165;45.458;11.062;2022-08-11T08:52:07;31.40;57.60
23957;DHT22;12165;45.458;11.062;2022-08-11T08:55:05;31.00;58.50
23957;DHT22;12165;45.458;11.062;2022-08-11T08:57:34;32.00;58.00
23957;DHT22;12165;45.458;11.062;2022-08-11T09:00:07;32.50;57.40
23957;DHT22;12165;45.458;11.062;2022-08-11T09:02:41;31.60;57.30
23957;DHT22;12165;45.458;11.062;2022-08-11T09:05:10;31.30;56.90
23957;DHT22;12165;45.458;11.062;2022-08-11T09:07:38;31.00;55.80
23957;DHT22;12165;45.458;11.062;2022-08-11T09:10:08;31.20;57.10
23957;DHT22;12165;45.458;11.062;2022-08-11T09:12:38;31.80;57.40
23957;DHT22;12165;45.458;11.062;2022-08-11T09:15:06;31.90;56.20
23957;DHT22;12165;45.458;11.062;2022-08-11T09:17:46;32.50;56.50
23957;DHT22;12165;45.458;11.062;2022-08-11T09:20:25;32.60;56.20
23957;DHT22;12165;45.458;11.062;2022-08-11T09:22:57;32.40;56.20
23957;DHT22;12165;45.458;11.062;2022-08-11T09:26:03;32.10;55.60
23957;DHT22;12165;45.458;11.062;2022-08-11T09:28:58;32.40;55.80
23957;DHT22;12165;45.458;11.062;2022-08-11T09:31:29;32.30;56.10
23957;DHT22;12165;45.458;11.062;2022-08-11T09:34:05;32.20;56.70
23957;DHT22;12165;45.458;11.062;2022-08-11T09:36:33;32.30;56.10
23957;DHT22;12165;45.458;11.062;2022-08-11T09:39:18;32.40;56.90
23957;DHT22;12165;45.458;11.062;2022-08-11T09:42:07;32.00;57.10
23957;DHT22;12165;45.458;11.062;2022-08-11T09:44:42;32.40;56.10
23957;DHT22;12165;45.458;11.062;2022-08-11T09:47:24;32.60;56.90
23957;DHT22;12165;45.458;11.062;2022-08-11T09:49:55;32.60;57.00
23957;DHT22;12165;45.458;11.062;2022-08-11T09:52:31;32.00;57.30
23957;DHT22;12165;45.458;11.062;2022-08-11T09:55:02;31.70;57.00
23957;DHT22;12165;45.458;11.062;2022-08-11T09:57:32;32.10;57.60
23957;DHT22;12165;45.458;11.062;2022-08-11T10:00:17;32.40;57.10
23957;DHT22;12165;45.458;11.062;2022-08-11T10:02:47;32.70;57.30
23957;DHT22;12165;45.458;11.062;2022-08-11T10:05:17;32.60;57.20
23957;DHT22;12165;45.458;11.062;2022-08-11T10:08:04;33.00;57.10
23957;DHT22;12165;45.458;11.062;2022-08-11T10:10:37;32.80;57.30
23957;DHT22;12165;45.458;11.062;2022-08-11T10:13:08;32.60;57.90
23957;DHT22;12165;45.458;11.062;2022-08-11T10:15:59;33.00;58.00
23957;DHT22;12165;45.458;11.062;2022-08-11T10:18:49;32.70;57.20
23957;DHT22;12165;45.458;11.062;2022-08-11T10:24:03;32.60;58.50
23957;DHT22;12165;45.458;11.062;2022-08-11T10:26:52;33.10;57.20
23957;DHT22;12165;45.458;11.062;2022-08-11T10:29:26;33.20;56.70
23957;DHT22;12165;45.458;11.062;2022-08-11T10:32:36;33.30;56.80
23957;DHT22;12165;45.458;11.062;2022-08-11T10:35:27;33.10;58.30
23957;DHT22;12165;45.458;11.062;2022-08-11T10:37:55;33.10;57.20
23957;DHT22;12165;45.458;11.062;2022-08-11T10:40:39;33.20;58.00
23957;DHT22;12165;45.458;11.062;2022-08-11T10:43:08;33.00;57.90
23957;DHT22;12165;45.458;11.062;2022-08-11T10:46:01;33.10;57.90
23957;DHT22;12165;45.458;11.062;2022-08-11T10:48:57;33.60;57.20
23957;DHT22;12165;45.458;11.062;2022-08-11T10:51:26;34.10;56.20
23957;DHT22;12165;45.458;11.062;2022-08-11T10:54:20;33.80;56.90
23957;DHT22;12165;45.458;11.062;2022-08-11T10:57:06;33.60;57.80
23957;DHT22;12165;45.458;11.062;2022-08-11T10:59:55;33.80;57.60
23957;DHT22;12165;45.458;11.062;2022-08-11T11:02:22;33.30;58.30
23957;DHT22;12165;45.458;11.062;2022-08-11T11:05:08;33.60;57.50
23957;DHT22;12165;45.458;11.062;2022-08-11T11:07:49;33.60;57.80
23957;DHT22;12165;45.458;11.062;2022-08-11T11:10:18;33.60;58.00
23957;DHT22;12165;45.458;11.062;2022-08-11T11:12:52;33.60;57.20
23957;DHT22;12165;45.458;11.062;2022-08-11T11:15:41;33.90;56.40
23957;DHT22;12165;45.458;11.062;2022-08-11T11:18:31;33.90;56.40
23957;DHT22;12165;45.458;11.062;2022-08-11T11:21:07;33.70;56.40
23957;DHT22;12165;45.458;11.062;2022-08-11T11:23:41;33.80;56.30
23957;DHT22;12165;45.458;11.062;2022-08-11T11:26:42;33.70;56.80
23957;DHT22;12165;45.458;11.062;2022-08-11T11:37:54;33.40;56.70
23957;DHT22;12165;45.458;11.062;2022-08-11T11:40:32;33.70;57.60
23957;DHT22;12165;45.458;11.062;2022-08-11T11:42:59;33.60;57.50
23957;DHT22;12165;45.458;11.062;2022-08-11T11:45:28;33.60;57.40
23957;DHT22;12165;45.458;11.062;2022-08-11T11:47:58;33.70;57.00
23957;DHT22;12165;45.458;11.062;2022-08-11T11:50:36;33.60;57.70
23957;DHT22;12165;45.458;11.062;2022-08-11T11:53:06;33.70;57.00
23957;DHT22;12165;45.458;11.062;2022-08-11T11:55:34;33.20;57.10
23957;DHT22;12165;45.458;11.062;2022-08-11T11:58:03;33.60;57.50
23957;DHT22;12165;45.458;11.062;2022-08-11T12:00:51;33.10;57.90
23957;DHT22;12165;45.458;11.062;2022-08-11T12:03:38;33.50;59.10
23957;DHT22;12165;45.458;11.062;2022-08-11T12:06:07;33.80;58.60
23957;DHT22;12165;45.458;11.062;2022-08-11T12:08:36;34.20;58.80
23957;DHT22;12165;45.458;11.062;2022-08-11T12:11:06;33.90;57.80
23957;DHT22;12165;45.458;11.062;2022-08-11T12:13:54;34.00;57.60
23957;DHT22;12165;45.458;11.062;2022-08-11T12:16:23;34.10;57.60
23957;DHT22;12165;45.458;11.062;2022-08-11T12:19:05;33.80;57.50
23957;DHT22;12165;45.458;11.062;2022-08-11T12:21:34;34.10;57.00
23957;DHT22;12165;45.458;11.062;2022-08-11T12:24:03;34.10;57.00
23957;DHT22;12165;45.458;11.062;2022-08-11T12:26:56;34.30;57.30
23957;DHT22;12165;45.458;11.062;2022-08-11T12:29:46;34.70;57.20
23957;DHT22;12165;45.458;11.062;2022-08-11T12:32:23;34.50;57.10
23957;DHT22;12165;45.458;11.062;2022-08-11T12:34:52;34.80;56.90
23957;DHT22;12165;45.458;11.062;2022-08-11T12:37:22;34.30;57.00
23957;DHT22;12165;45.458;11.062;2022-08-11T12:39:52;34.10;57.30
23957;DHT22;12165;45.458;11.062;2022-08-11T12:43:03;33.80;57.60
23957;DHT22;12165;45.458;11.062;2022-08-11T12:46:10;33.30;58.30
23957;DHT22;12165;45.458;11.062;2022-08-11T12:48:42;33.40;58.50
23957;DHT22;12165;45.458;11.062;2022-08-11T12:51:35;33.80;57.50
23957;DHT22;12165;45.458;11.062;2022-08-11T13:00:18;35.00;57.10
23957;DHT22;12165;45.458;11.062;2022-08-11T13:03:07;35.10;56.90
23957;DHT22;12165;45.458;11.062;2022-08-11T13:05:56;35.00;56.80
23957;DHT22;12165;45.458;11.062;2022-08-11T13:08:25;34.40;57.40
23957;DHT22;12165;45.458;11.062;2022-08-11T13:10:54;34.00;57.70
23957;DHT22;12165;45.458;11.062;2022-08-11T13:13:41;33.80;58.60
23957;DHT22;12165;45.458;11.062;2022-08-11T13:16:24;33.20;59.10
23957;DHT22;12165;45.458;11.062;2022-08-11T13:18:52;32.50;59.00
23957;DHT22;12165;45.458;11.062;2022-08-11T13:21:20;32.50;60.50
23957;DHT22;12165;45.458;11.062;2022-08-11T13:23:52;33.30;59.00
23957;DHT22;12165;45.458;11.062;2022-08-11T13:26:37;34.00;59.20
23957;DHT22;12165;45.458;11.062;2022-08-11T13:29:17;34.30;58.10
23957;DHT22;12165;45.458;11.062;2022-08-11T13:31:45;34.20;57.60
23957;DHT22;12165;45.458;11.062;2022-08-11T13:34:14;34.10;58.00
23957;DHT22;12165;45.458;11.062;2022-08-11T13:36:42;34.50;57.10
23957;DHT22;12165;45.458;11.062;2022-08-11T13:39:10;33.90;57.00
23957;DHT22;12165;45.458;11.062;2022-08-11T13:41:40;33.90;58.10
23957;DHT22;12165;45.458;11.062;2022-08-11T13:44:12;34.10;58.40
23957;DHT22;12165;45.458;11.062;2022-08-11T13:46:48;34.80;57.70
23957;DHT22;12165;45.458;11.062;2022-08-11T13:49:19;35.00;56.90
23957;DHT22;12165;45.458;11.062;2022-08-11T13:51:48;34.80;57.80
23957;DHT22;12165;45.458;11.062;2022-08-11T13:54:18;35.00;56.90
23957;DHT22;12165;45.458;11.062;2022-08-11T13:56:51;34.90;56.80
23957;DHT22;12165;45.458;11.062;2022-08-11T13:59:19;34.70;57.40
23957;DHT22;12165;45.458;11.062;2022-08-11T14:01:57;34.30;57.50
23957;DHT22;12165;45.458;11.062;2022-08-11T14:04:55;34.20;58.30
23957;DHT22;12165;45.458;11.062;2022-08-11T14:07:25;34.20;57.90
23957;DHT22;12165;45.458;11.062;2022-08-11T14:09:57;34.00;57.70
23957;DHT22;12165;45.458;11.062;2022-08-11T14:12:31;34.10;57.50
23957;DHT22;12165;45.458;11.062;2022-08-11T14:15:31;34.00;57.90
23957;DHT22;12165;45.458;11.062;2022-08-11T14:18:10;34.50;58.00
23957;DHT22;12165;45.458;11.062;2022-08-11T14:20:41;34.70;57.20
23957;DHT22;12165;45.458;11.062;2022-08-11T14:23:34;34.40;58.00
23957;DHT22;12165;45.458;11.062;2022-08-11T14:26:03;34.10;57.30
23957;DHT22;12165;45.458;11.062;2022-08-11T14:31:23;34.50;58.30
23957;DHT22;12165;45.458;11.062;2022-08-11T14:33:54;34.50;56.70
23957;DHT22;12165;45.458;11.062;2022-08-11T14:36:36;34.40;57.30
23957;DHT22;12165;45.458;11.062;2022-08-11T14:39:18;33.90;57.30
23957;DHT22;12165;45.458;11.062;2022-08-11T14:41:56;33.90;57.60
23957;DHT22;12165;45.458;11.062;2022-08-11T14:45:00;33.70;58.50
23957;DHT22;12165;45.458;11.062;2022-08-11T14:47:52;33.80;58.50
23957;DHT22;12165;45.458;11.062;2022-08-11T14:50:27;33.40;58.60
23957;DHT22;12165;45.458;11.062;2022-08-11T14:53:01;33.60;58.50
23957;DHT22;12165;45.458;11.062;2022-08-11T14:55:35;33.60;58.90
23957;DHT22;12165;45.458;11.062;2022-08-11T14:58:28;33.40;58.40
23957;DHT22;12165;45.458;11.062;2022-08-11T15:00:57;33.20;58.80
23957;DHT22;12165;45.458;11.062;2022-08-11T15:03:27;33.50;58.00
23957;DHT22;12165;45.458;11.062;2022-08-11T15:05:59;33.30;58.30
23957;DHT22;12165;45.458;11.062;2022-08-11T15:08:32;32.90;58.80
23957;DHT22;12165;45.458;11.062;2022-08-11T15:11:20;32.90;58.80
23957;DHT22;12165;45.458;11.062;2022-08-11T15:14:07;33.00;59.10
23957;DHT22;12165;45.458;11.062;2022-08-11T15:16:36;33.30;58.50
23957;DHT22;12165;45.458;11.062;2022-08-11T15:19:25;33.30;58.80
23957;DHT22;12165;45.458;11.062;2022-08-11T15:21:53;33.30;58.50
23957;DHT22;12165;45.458;11.062;2022-08-11T15:24:41;33.40;58.70
23957;DHT22;12165;45.458;11.062;2022-08-11T15:27:13;33.00;59.10
23957;DHT22;12165;45.458;11.062;2022-08-11T15:30:02;33.10;58.80
23957;DHT22;12165;45.458;11.062;2022-08-11T15:33:06;32.90;59.20
23957;DHT22;12165;45.458;11.062;2022-08-11T15:35:53;32.70;59.00
23957;DHT22;12165;45.458;11.062;2022-08-11T15:38:47;32.80;59.30
23957;DHT22;12165;45.458;11.062;2022-08-11T15:41:25;32.70;59.40
23957;DHT22;12165;45.458;11.062;2022-08-11T15:44:28;32.70;59.60
23957;DHT22;12165;45.458;11.062;2022-08-11T15:47:42;32.60;60.30
23957;DHT22;12165;45.458;11.062;2022-08-11T15:50:15;32.60;59.40
23957;DHT22;12165;45.458;11.062;2022-08-11T15:52:51;32.60;59.80
23957;DHT22;12165;45.458;11.062;2022-08-11T15:55:20;32.40;59.60
23957;DHT22;12165;45.458;11.062;2022-08-11T15:57:51;32.40;58.90
23957;DHT22;12165;45.458;11.062;2022-08-11T16:00:38;32.40;59.70
23957;DHT22;12165;45.458;11.062;2022-08-11T16:03:46;32.10;58.70
23957;DHT22;12165;45.458;11.062;2022-08-11T16:06:42;32.20;59.00
23957;DHT22;12165;45.458;11.062;2022-08-11T16:09:19;32.10;58.90
23957;DHT22;12165;45.458;11.062;2022-08-11T16:11:48;32.00;58.70
23957;DHT22;12165;45.458;11.062;2022-08-11T16:14:18;31.90;59.00
23957;DHT22;12165;45.458;11.062;2022-08-11T16:17:06;31.90;58.70
23957;DHT22;12165;45.458;11.062;2022-08-11T16:19:35;31.80;58.90
23957;DHT22;12165;45.458;11.062;2022-08-11T16:22:07;31.70;59.70
23957;DHT22;12165;45.458;11.062;2022-08-11T16:24:38;31.70;59.70
23957;DHT22;12165;45.458;11.062;2022-08-11T16:27:31;31.60;59.20
23957;DHT22;12165;45.458;11.062;2022-08-11T16:30:00;31.50;59.10
23957;DHT22;12165;45.458;11.062;2022-08-11T16:32:28;31.40;59.70
23957;DHT22;12165;45.458;11.062;2022-08-11T16:35:00;31.40;59.80
23957;DHT22;12165;45.458;11.062;2022-08-11T16:37:46;31.30;59.30
23957;DHT22;12165;45.458;11.062;2022-08-11T16:40:33;31.20;59.40
23957;DHT22;12165;45.458;11.062;2022-08-11T16:43:04;31.10;59.40
23957;DHT22;12165;45.458;11.062;2022-08-11T16:45:52;31.10;59.80
23957;DHT22;12165;45.458;11.062;2022-08-11T16:48:40;30.90;60.50
23957;DHT22;12165;45.458;11.062;2022-08-11T16:51:11;30.80;59.80
23957;DHT22;12165;45.458;11.062;2022-08-11T16:53:39;30.60;60.20
23957;DHT22;12165;45.458;11.062;2022-08-11T16:56:39;30.70;60.50
23957;DHT22;12165;45.458;11.062;2022-08-11T16:59:10;30.80;60.00
23957;DHT22;12165;45.458;11.062;2022-08-11T17:01:47;30.70;59.20
23957;DHT22;12165;45.458;11.062;2022-08-11T17:07:24;30.70;59.80
23957;DHT22;12165;45.458;11.062;2022-08-11T17:10:34;30.70;59.60
23957;DHT22;12165;45.458;11.062;2022-08-11T17:13:46;30.50;59.30
23957;DHT22;12165;45.458;11.062;2022-08-11T17:16:20;30.40;60.10
23957;DHT22;12165;45.458;11.062;2022-08-11T17:19:02;30.40;59.90
23957;DHT22;12165;45.458;11.062;2022-08-11T17:21:36;30.20;60.00
23957;DHT22;12165;45.458;11.062;2022-08-11T17:24:25;30.10;60.20
23957;DHT22;12165;45.458;11.062;2022-08-11T17:26:54;29.90;60.80
23957;DHT22;12165;45.458;11.062;2022-08-11T17:32:03;29.90;62.00
23957;DHT22;12165;45.458;11.062;2022-08-11T17:34:51;29.80;62.10
23957;DHT22;12165;45.458;11.062;2022-08-11T17:37:41;29.80;61.80
23957;DHT22;12165;45.458;11.062;2022-08-11T17:40:11;29.70;64.20
23957;DHT22;12165;45.458;11.062;2022-08-11T17:42:40;29.70;64.10
23957;DHT22;12165;45.458;11.062;2022-08-11T17:45:29;29.70;62.90
23957;DHT22;12165;45.458;11.062;2022-08-11T17:48:15;29.60;63.90
23957;DHT22;12165;45.458;11.062;2022-08-11T17:50:54;29.50;63.20
23957;DHT22;12165;45.458;11.062;2022-08-11T17:53:22;29.50;66.70
23957;DHT22;12165;45.458;11.062;2022-08-11T17:56:30;29.40;63.80
23957;DHT22;12165;45.458;11.062;2022-08-11T17:59:17;29.40;64.30
23957;DHT22;12165;45.458;11.062;2022-08-11T18:02:04;29.30;65.10
23957;DHT22;12165;45.458;11.062;2022-08-11T18:05:00;29.20;65.60
23957;DHT22;12165;45.458;11.062;2022-08-11T18:07:40;29.10;65.00
23957;DHT22;12165;45.458;11.062;2022-08-11T18:10:29;29.00;64.10
23957;DHT22;12165;45.458;11.062;2022-08-11T18:13:16;29.00;66.40
23957;DHT22;12165;45.458;11.062;2022-08-11T18:16:04;28.80;64.50
23957;DHT22;12165;45.458;11.062;2022-08-11T18:18:50;28.80;67.00
23957;DHT22;12165;45.458;11.062;2022-08-11T18:21:36;28.70;66.70
23957;DHT22;12165;45.458;11.062;2022-08-11T18:24:49;28.60;66.10
23957;DHT22;12165;45.458;11.062;2022-08-11T18:27:37;28.40;66.50
23957;DHT22;12165;45.458;11.062;2022-08-11T18:30:25;28.30;67.00
23957;DHT22;12165;45.458;11.062;2022-08-11T18:33:12;28.30;67.30
23957;DHT22;12165;45.458;11.062;2022-08-11T18:36:22;28.20;67.50
23957;DHT22;12165;45.458;11.062;2022-08-11T18:39:12;28.20;68.00
23957;DHT22;12165;45.458;11.062;2022-08-11T18:42:01;28.00;69.70
23957;DHT22;12165;45.458;11.062;2022-08-11T18:44:59;27.70;70.60
23957;DHT22;12165;45.458;11.062;2022-08-11T18:47:49;27.60;71.50
23957;DHT22;12165;45.458;11.062;2022-08-11T18:50:37;27.50;72.40
23957;DHT22;12165;45.458;11.062;2022-08-11T18:53:46;27.10;72.80
23957;DHT22;12165;45.458;11.062;2022-08-11T18:56:33;27.10;74.10
23957;DHT22;12165;45.458;11.062;2022-08-11T18:59:23;27.00;74.00
23957;DHT22;12165;45.458;11.062;2022-08-11T19:02:10;26.90;74.20
23957;DHT22;12165;45.458;11.062;2022-08-11T19:04:57;26.70;74.80
23957;DHT22;12165;45.458;11.062;2022-08-11T19:07:45;26.60;75.50
23957;DHT22;12165;45.458;11.062;2022-08-11T19:10:33;26.40;76.00
23957;DHT22;12165;45.458;11.062;2022-08-11T19:13:19;26.30;76.60
23957;DHT22;12165;45.458;11.062;2022-08-11T19:16:10;26.40;76.60
23957;DHT22;12165;45.458;11.062;2022-08-11T19:18:56;26.30;76.30
23957;DHT22;12165;45.458;11.062;2022-08-11T19:21:42;26.00;76.70
23957;DHT22;12165;45.458;11.062;2022-08-11T19:24:30;26.10;76.70
23957;DHT22;12165;45.458;11.062;2022-08-11T19:27:16;25.80;76.70
23957;DHT22;12165;45.458;11.062;2022-08-11T19:30:03;26.00;77.20
23957;DHT22;12165;45.458;11.062;2022-08-11T19:32:49;25.90;76.50
23957;DHT22;12165;45.458;11.062;2022-08-11T19:35:35;25.80;76.90
23957;DHT22;12165;45.458;11.062;2022-08-11T19:38:21;25.80;77.30
23957;DHT22;12165;45.458;11.062;2022-08-11T19:41:07;25.80;77.20
23957;DHT22;12165;45.458;11.062;2022-08-11T19:44:14;25.60;77.60
23957;DHT22;12165;45.458;11.062;2022-08-11T19:47:00;25.50;77.80
23957;DHT22;12165;45.458;11.062;2022-08-11T19:49:47;25.40;78.30
23957;DHT22;12165;45.458;11.062;2022-08-11T19:52:34;25.40;78.30
23957;DHT22;12165;45.458;11.062;2022-08-11T19:55:20;25.20;78.40
23957;DHT22;12165;45.458;11.062;2022-08-11T19:58:06;25.20;79.30
23957;DHT22;12165;45.458;11.062;2022-08-11T20:00:52;25.10;78.50
23957;DHT22;12165;45.458;11.062;2022-08-11T20:03:38;25.20;78.60
23957;DHT22;12165;45.458;11.062;2022-08-11T20:06:24;25.30;78.40
23957;DHT22;12165;45.458;11.062;2022-08-11T20:09:11;25.30;78.00
23957;DHT22;12165;45.458;11.062;2022-08-11T20:12:18;25.30;77.90
23957;DHT22;12165;45.458;11.062;2022-08-11T20:15:06;25.40;77.70
23957;DHT22;12165;45.458;11.062;2022-08-11T20:17:52;25.40;77.60
23957;DHT22;12165;45.458;11.062;2022-08-11T20:20:38;25.50;77.30
23957;DHT22;12165;45.458;11.062;2022-08-11T20:23:25;25.40;77.70
23957;DHT22;12165;45.458;11.062;2022-08-11T20:26:11;25.30;77.60